Time;durP1;ratioP1;P1;durP2;ratioP2;P2;SDS_P1;SDS_P2;PMS_P1;PMS_P2;Temp;Humidity;BMP_temperature;BMP_pressure;BME280_temperature;BME280_humidity;BME280_pressure;Samples;Min_cycle;Max_cycle;Signal;HPM_P1;HPM_P2
2021/09/29 01:28:12;;;;;;;8.98;8.07;;;13.00;99.90;;;;;;2615915;46;20258;-41
2021/09/29 01:30:41;;;;;;;9.23;8.18;;;12.50;99.90;;;;;;2616111;54;20145;-41
2021/09/29 01:33:10;;;;;;;8.73;7.88;;;12.40;99.90;;;;;;2616765;54;20160;-42
2021/09/29 01:35:39;;;;;;;9.45;8.48;;;12.50;99.90;;;;;;2616762;54;20179;-40
2021/09/29 01:38:09;;;;;;;9.20;8.30;;;12.50;99.90;;;;;;2616312;54;20167;-41
2021/09/29 01:40:38;;;;;;;10.13;9.18;;;12.50;99.90;;;;;;2616992;39;20558;-41
2021/09/29 01:43:07;;;;;;;10.73;8.52;;;12.50;99.90;;;;;;2616690;54;20149;-41
2021/09/29 01:45:38;;;;;;;11.35;9.13;;;12.40;99.90;;;;;;2616538;54;20161;-41
2021/09/29 01:48:08;;;;;;;9.98;8.98;;;12.40;99.90;;;;;;2616438;54;20233;-42
2021/09/29 01:50:38;;;;;;;9.02;8.13;;;12.40;99.90;;;;;;2616662;54;20157;-41
2021/09/29 01:53:09;;;;;;;9.50;8.20;;;12.40;99.90;;;;;;2616465;54;20160;-42
2021/09/29 01:55:39;;;;;;;9.15;8.25;;;12.40;99.90;;;;;;2616751;54;20203;-41
2021/09/29 01:58:08;;;;;;;8.57;7.88;;;12.40;99.90;;;;;;2616463;54;20156;-41
2021/09/29 02:00:42;;;;;;;9.63;8.27;;;12.40;99.90;;;;;;2616453;54;20161;-42
2021/09/29 02:03:10;;;;;;;9.70;8.52;;;12.50;99.90;;;;;;2617100;39;20839;-42
2021/09/29 02:05:40;;;;;;;9.68;8.70;;;12.60;99.90;;;;;;2616282;54;20200;-41
2021/09/29 02:08:11;;;;;;;8.80;7.90;;;12.60;99.90;;;;;;2616431;54;20145;-43
2021/09/29 02:10:39;;;;;;;10.27;8.73;;;12.60;99.90;;;;;;2616443;54;20149;-41
2021/09/29 02:13:08;;;;;;;10.45;8.43;;;12.60;99.90;;;;;;2616784;54;20654;-41
2021/09/29 02:15:40;;;;;;;10.07;7.85;;;12.50;99.90;;;;;;2617114;39;20558;-44
2021/09/29 02:18:09;;;;;;;16.10;8.70;;;12.50;99.90;;;;;;2616742;54;20144;-41
2021/09/29 02:20:37;;;;;;;9.73;8.27;;;12.50;99.90;;;;;;2616710;47;20148;-42
2021/09/29 02:23:06;;;;;;;9.32;8.32;;;12.50;99.90;;;;;;2614133;39;20602;-41
2021/09/29 02:25:35;;;;;;;8.40;7.07;;;12.30;99.90;;;;;;2616354;54;20165;-41
2021/09/29 02:28:03;;;;;;;10.18;7.50;;;12.30;99.90;;;;;;2616438;54;20161;-43
2021/09/29 02:30:32;;;;;;;7.60;6.88;;;12.60;99.90;;;;;;2616551;54;20157;-42
2021/09/29 02:33:04;;;;;;;9.45;8.55;;;12.70;99.90;;;;;;2616230;54;20141;-41
2021/09/29 02:35:32;;;;;;;8.85;8.05;;;12.40;99.90;;;;;;2616564;54;20149;-42
2021/09/29 02:38:01;;;;;;;8.00;7.03;;;12.40;99.90;;;;;;2616377;54;20149;-41
2021/09/29 02:40:30;;;;;;;8.48;7.78;;;12.20;99.90;;;;;;2616620;54;20180;-42
2021/09/29 02:42:59;;;;;;;9.05;8.05;;;12.20;99.90;;;;;;2616628;54;20175;-43
2021/09/29 02:45:27;;;;;;;11.30;7.75;;;12.30;99.90;;;;;;2616460;54;20149;-41
2021/09/29 02:47:56;;;;;;;7.13;6.53;;;12.30;99.90;;;;;;2616648;54;20168;-42
2021/09/29 02:50:27;;;;;;;10.30;8.15;;;12.50;99.90;;;;;;2617841;39;20574;-42
2021/09/29 02:52:56;;;;;;;7.88;6.43;;;12.40;99.90;;;;;;2617907;39;20551;-41
2021/09/29 02:55:25;;;;;;;8.23;7.40;;;12.30;99.90;;;;;;2616426;54;20147;-41
2021/09/29 02:57:55;;;;;;;9.32;6.80;;;12.30;99.90;;;;;;2616141;47;20184;-43
2021/09/29 03:00:25;;;;;;;7.90;7.13;;;12.20;99.90;;;;;;2616582;54;20164;-40
2021/09/29 03:02:53;;;;;;;9.43;6.82;;;12.00;99.90;;;;;;2616502;47;20141;-39
2021/09/29 03:05:22;;;;;;;7.60;6.47;;;11.80;99.90;;;;;;2616745;54;20168;-41
2021/09/29 03:07:53;;;;;;;8.20;6.35;;;11.70;99.90;;;;;;2616405;54;20706;-40
2021/09/29 03:10:22;;;;;;;7.22;6.47;;;11.60;99.90;;;;;;2616702;54;20168;-40
2021/09/29 03:12:51;;;;;;;8.18;7.00;;;11.70;99.90;;;;;;2617644;39;20611;-40
2021/09/29 03:15:19;;;;;;;11.85;7.53;;;11.70;99.90;;;;;;2616747;54;20159;-40
2021/09/29 03:17:48;;;;;;;8.25;7.53;;;11.70;99.90;;;;;;2617243;54;20177;-40
2021/09/29 03:20:17;;;;;;;10.60;7.30;;;11.70;99.90;;;;;;2617855;39;20567;-40
2021/09/29 03:22:46;;;;;;;8.82;7.63;;;11.70;99.90;;;;;;2617246;54;20159;-40
2021/09/29 03:25:17;;;;;;;7.53;6.82;;;11.70;99.90;;;;;;2617303;54;20203;-40
2021/09/29 03:27:46;;;;;;;9.43;7.50;;;11.70;99.90;;;;;;2617469;54;20193;-40
2021/09/29 03:30:16;;;;;;;7.78;6.97;;;11.50;99.90;;;;;;2617386;54;20152;-40
2021/09/29 03:32:45;;;;;;;7.90;7.10;;;11.40;99.90;;;;;;2617200;54;20160;-40
2021/09/29 03:35:15;;;;;;;7.45;6.75;;;11.40;99.90;;;;;;2617796;39;20565;-40
2021/09/29 03:37:44;;;;;;;8.27;7.47;;;11.50;99.90;;;;;;2616898;54;20192;-40
2021/09/29 03:40:17;;;;;;;9.10;6.63;;;11.50;99.90;;;;;;2617096;54;20172;-40
2021/09/29 03:42:46;;;;;;;9.07;8.23;;;11.40;99.90;;;;;;2617137;54;20176;-41
2021/09/29 03:45:15;;;;;;;6.82;6.25;;;11.50;99.90;;;;;;2617579;54;20152;-41
2021/09/29 03:47:44;;;;;;;7.00;6.40;;;11.50;99.90;;;;;;2617347;39;20567;-40
2021/09/29 03:50:15;;;;;;;6.57;5.97;;;11.60;99.90;;;;;;2617505;54;20152;-41
2021/09/29 03:52:44;;;;;;;6.57;5.85;;;11.70;99.90;;;;;;2617244;54;20153;-40
2021/09/29 03:55:13;;;;;;;7.78;5.75;;;11.80;99.90;;;;;;2617352;54;20663;-41
2021/09/29 03:57:44;;;;;;;8.50;6.40;;;11.90;99.90;;;;;;2617021;39;20633;-40
2021/09/29 04:00:15;;;;;;;7.50;6.07;;;12.00;99.90;;;;;;2617508;54;20153;-40
2021/09/29 04:02:44;;;;;;;8.00;6.15;;;12.00;99.90;;;;;;2617802;39;20546;-41
2021/09/29 04:05:14;;;;;;;6.00;5.43;;;11.90;99.90;;;;;;2617876;39;20527;-40
2021/09/29 04:07:43;;;;;;;8.20;7.40;;;11.90;99.90;;;;;;2617389;54;20188;-41
2021/09/29 04:10:12;;;;;;;7.43;6.10;;;11.90;99.90;;;;;;2617288;54;20151;-41
2021/09/29 04:12:44;;;;;;;6.28;5.65;;;11.90;99.90;;;;;;2616840;54;20156;-41
2021/09/29 04:15:14;;;;;;;6.03;4.63;;;11.90;99.90;;;;;;2617657;39;20539;-41
2021/09/29 04:17:43;;;;;;;6.85;5.68;;;12.00;99.90;;;;;;2617026;54;20180;-42
2021/09/29 04:20:13;;;;;;;5.82;5.28;;;12.10;99.90;;;;;;2617225;54;20151;-41
2021/09/29 04:22:42;;;;;;;7.65;5.85;;;12.10;99.90;;;;;;2617059;54;20145;-41
2021/09/29 04:25:12;;;;;;;5.95;5.00;;;12.10;99.90;;;;;;2617415;54;20153;-41
2021/09/29 04:27:43;;;;;;;5.93;4.75;;;12.10;99.90;;;;;;2616691;54;20188;-42
2021/09/29 04:30:14;;;;;;;6.30;5.60;;;12.20;99.90;;;;;;2617137;54;20148;-41
2021/09/29 04:32:43;;;;;;;6.28;4.80;;;12.20;99.90;;;;;;2616994;54;20179;-41
2021/09/29 04:35:13;;;;;;;9.05;6.85;;;12.20;99.90;;;;;;2617286;39;20590;-42
2021/09/29 04:37:41;;;;;;;6.88;6.25;;;12.10;99.90;;;;;;2616662;54;20177;-41
2021/09/29 04:40:11;;;;;;;7.22;6.35;;;12.10;99.90;;;;;;2617254;54;20168;-41
2021/09/29 04:42:40;;;;;;;5.97;5.00;;;12.10;99.90;;;;;;2616891;54;20180;-42
2021/09/29 04:45:12;;;;;;;6.18;5.40;;;12.00;99.90;;;;;;2616939;54;20249;-42
2021/09/29 04:47:41;;;;;;;7.57;5.75;;;12.10;99.90;;;;;;2616933;47;20177;-42
2021/09/29 04:50:10;;;;;;;5.68;4.18;;;12.00;99.90;;;;;;2617172;54;20211;-42
2021/09/29 04:52:39;;;;;;;7.25;4.85;;;12.00;99.90;;;;;;2616930;54;20149;-40
2021/09/29 04:55:08;;;;;;;7.43;5.63;;;12.10;99.90;;;;;;2616904;54;20149;-41
2021/09/29 04:57:37;;;;;;;8.10;5.40;;;12.10;99.90;;;;;;2617017;51;20195;-42
2021/09/29 05:00:08;;;;;;;6.40;5.80;;;12.10;99.90;;;;;;2617899;39;20596;-41
2021/09/29 05:02:42;;;;;;;8.55;6.15;;;12.00;99.90;;;;;;2617034;54;20145;-42
2021/09/29 05:05:11;;;;;;;7.97;6.68;;;12.10;99.90;;;;;;2617393;54;20150;-40
2021/09/29 05:07:42;;;;;;;8.27;5.82;;;12.00;99.90;;;;;;2617261;39;20586;-41
2021/09/29 05:10:17;;;;;;;6.95;6.32;;;12.00;99.90;;;;;;2596536;54;20304;-41
2021/09/29 05:12:50;;;;;;;7.43;6.28;;;12.10;99.90;;;;;;2616220;54;20236;-39
2021/09/29 05:15:18;;;;;;;7.30;6.22;;;12.10;99.90;;;;;;2616925;39;20597;-41
2021/09/29 05:17:50;;;;;;;6.80;5.45;;;12.00;99.90;;;;;;2616248;54;20137;-39
2021/09/29 05:20:18;;;;;;;5.45;4.65;;;12.00;99.90;;;;;;2616531;47;20181;-42
2021/09/29 05:22:47;;;;;;;7.05;6.32;;;12.00;99.90;;;;;;2616614;54;20693;-39
2021/09/29 05:25:16;;;;;;;8.00;5.35;;;12.10;99.90;;;;;;2616184;54;20150;-40
2021/09/29 05:27:45;;;;;;;10.07;5.82;;;12.10;99.90;;;;;;2616054;54;20204;-41
2021/09/29 05:30:14;;;;;;;6.20;5.70;;;12.10;99.90;;;;;;2616486;54;20181;-40
2021/09/29 05:32:43;;;;;;;8.75;5.65;;;12.10;99.90;;;;;;2616426;54;20154;-41
2021/09/29 05:35:14;;;;;;;8.32;6.82;;;12.10;99.90;;;;;;2616386;54;20161;-39
2021/09/29 05:37:44;;;;;;;19.67;14.38;;;12.10;99.90;;;;;;2615852;39;20596;-41
2021/09/29 05:40:14;;;;;;;14.57;10.57;;;12.20;99.90;;;;;;2616401;39;20588;-41
2021/09/29 05:42:43;;;;;;;9.82;8.57;;;12.20;99.90;;;;;;2617079;39;20593;-42
2021/09/29 05:45:12;;;;;;;6.38;5.22;;;12.20;99.90;;;;;;2616741;54;20191;-41
2021/09/29 05:47:41;;;;;;;9.45;5.80;;;12.20;99.90;;;;;;2616608;39;20538;-42
2021/09/29 05:50:11;;;;;;;7.05;6.07;;;12.20;99.90;;;;;;2616248;54;20192;-41
2021/09/29 05:52:42;;;;;;;6.80;6.03;;;12.10;99.90;;;;;;2616515;54;20200;-42
2021/09/29 05:55:13;;;;;;;6.30;5.68;;;12.10;99.90;;;;;;2616562;47;20535;-42
2021/09/29 05:57:41;;;;;;;9.15;6.78;;;12.10;99.90;;;;;;2616769;54;20236;-42
2021/09/29 06:00:12;;;;;;;8.45;5.82;;;12.20;99.90;;;;;;2616558;54;20196;-42
2021/09/29 06:02:41;;;;;;;12.45;7.13;;;12.30;99.90;;;;;;2616496;54;20149;-41
2021/09/29 06:05:11;;;;;;;7.90;6.32;;;12.30;99.90;;;;;;2616715;54;20204;-40
2021/09/29 06:07:42;;;;;;;6.85;5.88;;;12.20;99.90;;;;;;2616560;54;20157;-42
2021/09/29 06:10:12;;;;;;;8.80;5.93;;;12.20;99.90;;;;;;2616672;54;20183;-40
2021/09/29 06:12:41;;;;;;;8.52;7.13;;;12.20;99.90;;;;;;2616549;54;20144;-41
2021/09/29 06:15:17;;;;;;;7.50;6.80;;;12.30;99.90;;;;;;2616882;47;20145;-40
2021/09/29 06:17:53;;;;;;;9.18;7.00;;;12.40;99.90;;;;;;2616663;47;20168;-43
2021/09/29 06:20:22;;;;;;;9.32;8.43;;;12.30;99.90;;;;;;2616519;54;20200;-41
2021/09/29 06:22:54;;;;;;;7.68;6.97;;;12.30;99.90;;;;;;2616812;54;20149;-41
2021/09/29 06:25:23;;;;;;;8.18;7.32;;;12.30;99.90;;;;;;2616872;54;20153;-43
2021/09/29 06:27:53;;;;;;;8.13;7.43;;;12.20;99.90;;;;;;2616613;39;20456;-48
2021/09/29 06:30:22;;;;;;;16.05;8.40;;;12.30;99.90;;;;;;2616474;54;20184;-41
2021/09/29 06:32:50;;;;;;;11.93;8.07;;;12.40;99.90;;;;;;2616731;54;20175;-41
2021/09/29 06:35:19;;;;;;;8.82;7.63;;;12.50;99.90;;;;;;2616712;54;20217;-41
2021/09/29 06:37:48;;;;;;;8.60;7.78;;;12.50;99.90;;;;;;2616768;54;20148;-41
2021/09/29 06:40:21;;;;;;;9.10;8.20;;;12.70;99.90;;;;;;2616305;54;20185;-40
2021/09/29 06:42:50;;;;;;;10.85;7.70;;;12.70;99.90;;;;;;2615855;47;20160;-41
2021/09/29 06:45:19;;;;;;;8.80;7.95;;;12.70;99.90;;;;;;2615103;54;20168;-42
2021/09/29 06:47:49;;;;;;;9.55;7.97;;;12.80;99.90;;;;;;2614811;54;20153;-41
2021/09/29 06:50:20;;;;;;;8.23;7.53;;;12.80;99.90;;;;;;2615124;54;20204;-41
2021/09/29 06:52:49;;;;;;;8.43;7.70;;;12.90;99.90;;;;;;2615658;54;20184;-42
2021/09/29 06:55:20;;;;;;;8.88;7.97;;;13.00;99.90;;;;;;2615890;47;20161;-41
2021/09/29 06:57:49;;;;;;;12.20;9.15;;;13.10;99.90;;;;;;2616684;39;20578;-42
2021/09/29 07:00:18;;;;;;;9.70;8.70;;;13.30;99.90;;;;;;2616410;54;20177;-41
2021/09/29 07:02:49;;;;;;;10.77;9.73;;;13.30;99.90;;;;;;2616056;54;20150;-42
2021/09/29 07:05:19;;;;;;;12.77;8.60;;;13.30;99.90;;;;;;2616720;54;20183;-41
2021/09/29 07:07:48;;;;;;;13.93;9.10;;;13.20;99.90;;;;;;2616465;54;20137;-41
2021/09/29 07:10:22;;;;;;;13.77;10.40;;;13.20;99.90;;;;;;2616359;54;20559;-41
2021/09/29 07:12:51;;;;;;;12.88;9.45;;;13.30;99.90;;;;;;2616568;54;20145;-41
2021/09/29 07:15:20;;;;;;;12.60;11.35;;;13.20;99.90;;;;;;2616483;47;20149;-40
2021/09/29 07:17:51;;;;;;;12.77;11.20;;;13.30;99.90;;;;;;2616270;54;20168;-40
2021/09/29 07:20:20;;;;;;;13.73;11.93;;;13.40;99.90;;;;;;2616294;47;20184;-41
2021/09/29 07:22:49;;;;;;;11.73;10.43;;;13.50;99.90;;;;;;2616776;54;20137;-40
2021/09/29 07:25:20;;;;;;;12.70;10.80;;;13.40;99.90;;;;;;2616597;54;20199;-42
2021/09/29 07:27:49;;;;;;;12.50;9.70;;;13.40;99.90;;;;;;2616438;54;20153;-41
2021/09/29 07:30:18;;;;;;;11.77;10.68;;;13.50;99.90;;;;;;2616193;54;20184;-46
2021/09/29 07:32:51;;;;;;;13.48;10.18;;;13.70;99.90;;;;;;2616638;54;20145;-41
2021/09/29 07:35:20;;;;;;;12.35;10.90;;;14.00;99.90;;;;;;2617106;39;20573;-40
2021/09/29 07:37:50;;;;;;;10.32;9.25;;;14.20;99.90;;;;;;2616529;54;20217;-41
2021/09/29 07:40:22;;;;;;;11.80;10.70;;;14.20;99.90;;;;;;2616431;47;20181;-41
2021/09/29 07:42:51;;;;;;;13.88;10.65;;;14.30;99.90;;;;;;2616478;54;20146;-41
2021/09/29 07:45:19;;;;;;;10.70;9.55;;;14.10;99.90;;;;;;2616680;54;20157;-41
2021/09/29 07:47:48;;;;;;;14.45;11.43;;;14.30;99.90;;;;;;2616719;39;20212;-41
2021/09/29 07:50:17;;;;;;;12.60;11.27;;;14.50;99.90;;;;;;2616147;54;20180;-41
2021/09/29 07:52:46;;;;;;;10.85;9.90;;;14.40;99.90;;;;;;2616427;54;20146;-41
2021/09/29 07:55:17;;;;;;;17.27;12.80;;;14.50;99.90;;;;;;2616376;54;20150;-42
2021/09/29 07:57:49;;;;;;;12.50;11.15;;;14.60;99.90;;;;;;2616905;39;20586;-42
2021/09/29 08:00:20;;;;;;;14.55;11.95;;;14.80;99.90;;;;;;2616312;54;20165;-41
2021/09/29 08:02:49;;;;;;;14.65;12.60;;;14.80;99.90;;;;;;2617232;54;20149;-41
2021/09/29 08:05:19;;;;;;;15.48;13.10;;;14.90;99.90;;;;;;2617368;54;20137;-40
2021/09/29 08:07:50;;;;;;;15.20;13.75;;;14.70;99.90;;;;;;2617477;54;20145;-40
2021/09/29 08:10:20;;;;;;;12.63;11.45;;;14.70;99.90;;;;;;2617233;54;20185;-42
2021/09/29 08:12:51;;;;;;;18.05;13.10;;;14.60;99.90;;;;;;2618605;39;20616;-40
2021/09/29 08:15:20;;;;;;;12.00;10.77;;;14.80;99.90;;;;;;2617512;54;20148;-40
2021/09/29 08:17:50;;;;;;;13.52;9.95;;;14.90;99.90;;;;;;2617523;39;20445;-40
2021/09/29 08:20:20;;;;;;;9.93;8.98;;;14.90;99.90;;;;;;2617069;54;20183;-41
2021/09/29 08:22:54;;;;;;;12.68;10.80;;;14.90;99.90;;;;;;2617105;54;20145;-40
2021/09/29 08:25:35;;;;;;;9.82;8.82;;;14.90;99.90;;;;;;2617302;54;20141;-40
2021/09/29 08:28:17;;;;;;;11.15;10.02;;;14.70;99.90;;;;;;2617741;31;20665;-41
2021/09/29 08:33:46;;;;;;;12.00;10.18;;;14.60;99.90;;;;;;2617302;54;20168;-41
2021/09/29 08:36:23;;;;;;;11.05;9.82;;;14.50;99.90;;;;;;2617294;54;20153;-40
2021/09/29 08:38:58;;;;;;;9.77;8.75;;;14.50;99.90;;;;;;2617073;54;20169;-40
2021/09/29 08:41:40;;;;;;;9.85;8.85;;;14.50;99.90;;;;;;2617309;54;20267;-41
2021/09/29 08:44:15;;;;;;;10.90;9.63;;;14.40;99.90;;;;;;2617846;54;20137;-41
2021/09/29 08:46:59;;;;;;;12.05;10.82;;;14.50;99.90;;;;;;2617950;54;20658;-41
2021/09/29 08:49:35;;;;;;;11.10;10.05;;;14.50;99.90;;;;;;2617179;54;20153;-41
2021/09/29 08:52:17;;;;;;;9.82;8.73;;;14.60;99.90;;;;;;2617380;54;20145;-42
2021/09/29 09:16:45;;;;;;;8.63;7.93;;;15.10;99.90;;;;;;2617048;54;20145;-41
2021/09/29 09:19:16;;;;;;;6.72;6.15;;;15.30;99.90;;;;;;2616894;54;20182;-42
2021/09/29 09:21:55;;;;;;;7.28;6.50;;;15.10;99.90;;;;;;2617594;39;20654;-40
2021/09/29 09:24:26;;;;;;;6.97;6.35;;;15.40;99.90;;;;;;2617613;39;20550;-41
2021/09/29 09:27:00;;;;;;;7.50;5.90;;;15.90;99.90;;;;;;2616910;54;20702;-40
2021/09/29 09:29:30;;;;;;;6.95;5.55;;;16.50;99.90;;;;;;2616771;54;20252;-41
2021/09/29 09:32:13;;;;;;;6.35;5.25;;;16.50;99.90;;;;;;2617105;39;20235;-40
2021/09/29 09:34:42;;;;;;;5.03;4.60;;;16.20;99.90;;;;;;2616855;54;20171;-40
2021/09/29 09:37:11;;;;;;;8.15;5.03;;;16.00;99.90;;;;;;2616868;47;20153;-40
2021/09/29 09:39:41;;;;;;;4.40;4.00;;;16.10;99.90;;;;;;2617156;39;20581;-40
2021/09/29 09:42:12;;;;;;;4.47;3.72;;;16.50;99.90;;;;;;2616928;54;20149;-41
2021/09/29 09:44:42;;;;;;;3.45;3.25;;;16.80;99.90;;;;;;2617238;54;20144;-40
2021/09/29 09:47:19;;;;;;;6.80;4.13;;;17.10;99.90;;;;;;2616708;54;20156;-43
2021/09/29 09:49:48;;;;;;;7.43;4.45;;;17.20;99.90;;;;;;2616768;54;20177;-42
2021/09/29 09:52:29;;;;;;;3.58;3.20;;;17.10;99.90;;;;;;2616047;54;20204;-42
2021/09/29 09:55:04;;;;;;;6.22;4.10;;;16.60;99.90;;;;;;2616717;54;20144;-44
2021/09/29 09:57:34;;;;;;;3.60;3.30;;;16.70;99.90;;;;;;2616516;39;20658;-42
2021/09/29 10:00:03;;;;;;;4.15;3.80;;;16.70;99.90;;;;;;2616860;54;20173;-42
2021/09/29 10:02:44;;;;;;;6.43;3.72;;;16.90;99.90;;;;;;2617337;54;20137;-42
2021/09/29 10:05:14;;;;;;;4.57;4.00;;;17.20;99.90;;;;;;2617191;54;20156;-42
2021/09/29 10:07:44;;;;;;;5.18;4.13;;;17.50;99.90;;;;;;2617330;39;20570;-42
2021/09/29 10:10:18;;;;;;;5.85;3.78;;;17.70;99.90;;;;;;2616633;54;20168;-41
2021/09/29 10:13:06;;;;;;;5.78;3.67;;;17.80;99.90;;;;;;2617003;54;20156;-42
2021/09/29 10:26:07;;;;;;;4.50;4.10;;;18.50;99.90;;;;;;2616972;54;20168;-42
2021/09/29 10:27:09;;;;;;;4.63;3.47;;;19.60;99.90;;;;;;2616509;54;20153;-43
2021/09/29 10:29:40;;;;;;;4.35;3.45;;;20.90;99.90;;;;;;2615999;54;20151;-42
2021/09/29 10:32:17;;;;;;;6.00;4.15;;;22.20;99.90;;;;;;2615775;54;20252;-42
2021/09/29 10:35:05;;;;;;;4.90;3.45;;;22.50;99.90;;;;;;2616271;54;21015;-42
2021/09/29 10:38:01;;;;;;;4.03;3.38;;;23.40;99.90;;;;;;2616679;54;20667;-43
2021/09/29 10:43:34;;;;;;;3.55;2.20;;;22.40;99.90;;;;;;2617299;54;20701;-42
2021/09/29 10:46:17;;;;;;;4.05;1.67;;;23.00;99.90;;;;;;2619080;54;20164;-41
2021/09/29 10:49:05;;;;;;;3.00;2.10;;;23.00;99.90;;;;;;2618647;54;20153;-41
2021/09/29 10:52:03;;;;;;;4.50;2.22;;;22.70;99.90;;;;;;2618846;54;20193;-41
2021/09/29 11:05:51;;;;;;;3.05;2.40;;;20.30;99.90;;;;;;2616677;39;20630;-41
2021/09/29 11:11:33;;;;;;;3.70;2.28;;;19.30;99.90;;;;;;2616087;47;20184;-41
2021/09/29 11:28:26;;;;;;;5.70;2.22;;;18.30;99.90;;;;;;2616066;54;20153;-42
2021/09/29 11:30:59;;;;;;;3.70;1.63;;;18.40;99.90;;;;;;2615544;54;20206;-44
2021/09/29 11:33:36;;;;;;;8.18;2.38;;;18.30;99.90;;;;;;2616268;54;20153;-42
2021/09/29 11:36:14;;;;;;;3.75;1.90;;;18.20;99.90;;;;;;2616522;54;20145;-42
2021/09/29 11:50:01;;;;;;;3.17;2.35;;;19.10;99.90;;;;;;2617792;39;20845;-41
2021/09/29 12:09:05;;;;;;;3.88;1.65;;;19.20;99.90;;;;;;2616886;54;20145;-42
2021/09/29 12:11:42;;;;;;;5.88;2.38;;;19.20;99.90;;;;;;2617076;47;20718;-41
2021/09/29 12:14:19;;;;;;;4.47;2.22;;;19.40;99.90;;;;;;2617475;54;20552;-42
2021/09/29 12:16:51;;;;;;;6.00;2.17;;;19.20;99.90;;;;;;2617295;54;20141;-42
2021/09/29 12:19:25;;;;;;;3.65;1.73;;;19.20;99.90;;;;;;2617326;54;20149;-41
2021/09/29 12:21:56;;;;;;;3.05;1.67;;;19.20;99.90;;;;;;2617872;39;20528;-41
2021/09/29 12:24:32;;;;;;;6.05;1.98;;;19.00;99.90;;;;;;2617554;54;20233;-41
2021/09/29 12:27:02;;;;;;;2.50;1.63;;;18.80;99.90;;;;;;2617672;39;20541;-41
2021/09/29 12:29:36;;;;;;;2.47;1.60;;;18.60;99.90;;;;;;2617298;39;20593;-41
2021/09/29 12:32:30;;;;;;;5.35;2.17;;;18.50;99.90;;;;;;2617090;54;20156;-41
2021/09/29 12:35:15;;;;;;;3.20;1.67;;;18.30;99.90;;;;;;2616927;54;20176;-41
2021/09/29 12:37:56;;;;;;;8.90;2.35;;;18.10;99.90;;;;;;2616511;47;20156;-41
2021/09/29 12:40:26;;;;;;;3.08;1.65;;;17.90;99.90;;;;;;2617537;39;20590;-42
2021/09/29 12:43:01;;;;;;;2.25;1.67;;;18.20;99.90;;;;;;2617129;54;20248;-41
2021/09/29 12:45:37;;;;;;;4.97;2.65;;;18.60;99.90;;;;;;2617171;47;20152;-42
2021/09/29 12:48:08;;;;;;;1.45;1.10;;;18.60;99.90;;;;;;2616599;54;20145;-41
2021/09/29 12:50:43;;;;;;;2.22;1.23;;;18.60;99.90;;;;;;2616713;54;20172;-41
2021/09/29 12:53:21;;;;;;;2.58;1.33;;;18.40;99.90;;;;;;2617209;39;20614;-41
2021/09/29 12:55:53;;;;;;;1.17;0.80;;;18.60;99.90;;;;;;2617250;54;20165;-41
2021/09/29 12:58:22;;;;;;;2.15;0.77;;;18.70;99.90;;;;;;2616852;54;20149;-42
2021/09/29 13:00:54;;;;;;;4.55;1.25;;;18.60;99.90;;;;;;2617262;39;20562;-42
2021/09/29 13:03:22;;;;;;;1.13;1.02;;;18.60;99.90;;;;;;2616930;54;20169;-40
2021/09/29 13:05:51;;;;;;;2.08;1.42;;;19.10;99.90;;;;;;2617419;39;20547;-42
2021/09/29 13:08:20;;;;;;;3.17;1.05;;;18.90;99.90;;;;;;2617434;31;20587;-41
2021/09/29 13:10:49;;;;;;;3.88;1.45;;;18.90;99.90;;;;;;2616611;54;20185;-42
2021/09/29 13:13:18;;;;;;;1.95;1.08;;;19.10;99.90;;;;;;2616100;54;20153;-41
2021/09/29 13:15:50;;;;;;;2.88;1.25;;;19.20;99.90;;;;;;2614901;54;20157;-41
2021/09/29 13:18:27;;;;;;;3.75;1.65;;;19.00;99.90;;;;;;2616451;54;20264;-41
2021/09/29 13:21:00;;;;;;;0.70;0.70;;;18.90;99.90;;;;;;2616586;54;20180;-41
2021/09/29 13:23:32;;;;;;;1.05;0.70;;;18.70;99.90;;;;;;2616988;54;20156;-41
2021/09/29 13:26:16;;;;;;;2.58;0.90;;;18.40;99.90;;;;;;2616775;54;20157;-42
2021/09/29 13:36:51;;;;;;;5.75;2.67;;;17.70;99.90;;;;;;2616299;47;20169;-41
2021/09/29 13:39:21;;;;;;;4.18;1.98;;;17.50;99.90;;;;;;2617100;39;20563;-41
2021/09/29 13:41:54;;;;;;;12.45;1.92;;;17.50;99.90;;;;;;2617727;39;20577;-38
2021/09/29 13:44:25;;;;;;;3.70;1.95;;;16.30;99.90;;;;;;2616869;39;20549;-41
2021/09/29 13:46:54;;;;;;;1.95;1.02;;;14.50;99.90;;;;;;2616441;54;20153;-42
2021/09/29 13:49:25;;;;;;;1.00;1.00;;;13.80;99.90;;;;;;2616297;54;20153;-41
2021/09/29 13:51:57;;;;;;;3.88;1.20;;;13.50;99.90;;;;;;2616744;54;20156;-42
2021/09/29 13:54:31;;;;;;;4.05;1.73;;;13.40;99.90;;;;;;2617099;54;20148;-41
2021/09/29 13:57:10;;;;;;;1.33;1.02;;;13.40;99.90;;;;;;2616493;54;20160;-41
2021/09/29 13:59:55;;;;;;;1.45;0.98;;;13.50;99.90;;;;;;2616684;47;20157;-41
2021/09/29 14:02:41;;;;;;;2.70;1.10;;;13.50;99.90;;;;;;2616825;39;20532;-41
2021/09/29 14:29:32;;;;;;;0.98;0.90;;;13.70;99.90;;;;;;2616811;54;20650;-41
2021/09/29 14:32:15;;;;;;;1.10;1.10;;;13.60;99.90;;;;;;2617115;54;20268;-41
2021/09/29 14:34:44;;;;;;;1.75;1.65;;;13.70;99.90;;;;;;2616938;54;20700;-41
2021/09/29 14:37:15;;;;;;;1.30;1.20;;;13.60;99.90;;;;;;2616610;54;20721;-42
2021/09/29 14:39:45;;;;;;;2.45;1.30;;;13.60;99.90;;;;;;2616777;54;20689;-41
2021/09/29 14:42:13;;;;;;;1.20;1.20;;;13.60;99.90;;;;;;2616884;54;20153;-42
2021/09/29 14:44:43;;;;;;;1.70;1.60;;;13.70;99.90;;;;;;2617235;54;20164;-41
2021/09/29 14:47:14;;;;;;;2.25;1.60;;;13.80;99.90;;;;;;2616686;54;20245;-41
2021/09/29 14:49:45;;;;;;;1.73;1.63;;;13.80;99.90;;;;;;2616632;54;20180;-41
2021/09/29 14:52:16;;;;;;;2.53;2.35;;;14.10;99.90;;;;;;2617063;54;20145;-42
2021/09/29 14:54:45;;;;;;;3.92;3.50;;;14.30;99.90;;;;;;2616414;54;20187;-41
2021/09/29 14:57:14;;;;;;;3.50;3.30;;;14.40;99.90;;;;;;2616510;39;20575;-41
2021/09/29 14:59:44;;;;;;;4.20;3.83;;;14.10;99.90;;;;;;2616375;47;20172;-41
2021/09/29 15:02:14;;;;;;;3.50;3.33;;;14.00;99.90;;;;;;2616412;54;20145;-41
2021/09/29 15:04:43;;;;;;;3.95;3.75;;;13.90;99.90;;;;;;2616760;39;20565;-41
2021/09/29 15:07:12;;;;;;;3.35;3.15;;;13.90;99.90;;;;;;2616502;39;20573;-42
2021/09/29 15:09:44;;;;;;;3.90;3.70;;;13.60;99.90;;;;;;2615964;54;20698;-41
2021/09/29 15:12:13;;;;;;;3.70;3.50;;;13.70;99.90;;;;;;2616845;54;20210;-42
2021/09/29 15:14:57;;;;;;;3.65;3.45;;;13.50;99.90;;;;;;2617916;39;20568;-41
2021/09/29 15:17:35;;;;;;;4.00;3.75;;;13.60;99.90;;;;;;2618746;54;20603;-41
2021/09/29 15:20:10;;;;;;;3.85;3.47;;;13.70;99.90;;;;;;2617627;54;20188;-41
2021/09/29 15:25:34;;;;;;;3.53;3.33;;;13.60;99.90;;;;;;2616754;54;20149;-42
2021/09/29 15:28:37;;;;;;;5.15;3.10;;;13.50;99.90;;;;;;2616522;54;20156;-41
2021/09/29 15:31:17;;;;;;;3.17;3.00;;;13.60;99.90;;;;;;2616642;39;20463;-41
2021/09/29 15:47:17;;;;;;;2.95;2.78;;;13.70;99.90;;;;;;2616530;54;20695;-40
2021/09/29 15:49:51;;;;;;;2.63;2.42;;;13.70;99.90;;;;;;2616294;54;20701;-41
2021/09/29 15:52:33;;;;;;;3.72;1.70;;;13.50;99.90;;;;;;2616511;54;20153;-42
2021/09/29 15:55:09;;;;;;;1.02;1.02;;;13.20;99.90;;;;;;2616545;54;20145;-40
2021/09/29 16:00:42;;;;;;;1.30;1.05;;;12.80;99.90;;;;;;2616173;54;20181;-41
2021/09/29 16:03:20;;;;;;;1.38;0.90;;;12.80;99.90;;;;;;2616512;54;20148;-41
2021/09/29 16:05:53;;;;;;;1.17;0.85;;;12.80;99.90;;;;;;2616384;54;20153;-41
2021/09/29 16:08:33;;;;;;;0.82;0.82;;;12.80;99.90;;;;;;2616268;54;20149;-41
2021/09/29 16:11:40;;;;;;;2.35;0.93;;;12.80;99.90;;;;;;2616144;54;20175;-41
2021/09/29 16:22:52;;;;;;;1.02;0.90;;;12.80;99.90;;;;;;2616332;54;20161;-41
2021/09/29 16:30:51;;;;;;;0.65;0.65;;;12.80;99.90;;;;;;2617135;54;20748;-41
2021/09/29 16:33:45;;;;;;;0.70;0.70;;;12.80;99.90;;;;;;2617246;54;20159;-40
2021/09/29 16:36:16;;;;;;;0.60;0.60;;;12.90;99.90;;;;;;2617454;54;20758;-40
2021/09/29 16:38:47;;;;;;;0.70;0.70;;;12.80;99.90;;;;;;2617317;54;20141;-41
2021/09/29 16:41:17;;;;;;;1.58;1.17;;;12.80;99.90;;;;;;2617260;54;20172;-40
2021/09/29 16:43:47;;;;;;;0.50;0.50;;;12.90;99.90;;;;;;2617477;47;20152;-40
2021/09/29 16:46:20;;;;;;;2.80;1.83;;;12.90;99.90;;;;;;2617243;54;20136;-40
2021/09/29 16:48:50;;;;;;;2.58;2.17;;;12.70;99.90;;;;;;2617128;39;20589;-41
2021/09/29 16:51:25;;;;;;;4.70;3.70;;;12.90;99.90;;;;;;2616527;54;20794;-42
2021/09/29 16:53:57;;;;;;;2.28;2.08;;;12.80;99.90;;;;;;2617010;54;20692;-41
2021/09/29 16:56:26;;;;;;;1.67;1.33;;;12.90;99.90;;;;;;2616826;54;20272;-42
2021/09/29 16:58:58;;;;;;;1.65;1.30;;;12.80;99.90;;;;;;2616489;54;20165;-42
2021/09/29 17:01:31;;;;;;;0.90;0.90;;;12.70;99.90;;;;;;2616447;54;20195;-41
2021/09/29 17:04:00;;;;;;;1.27;1.15;;;12.70;99.90;;;;;;2616960;54;20678;-41
2021/09/29 17:06:29;;;;;;;1.02;0.98;;;12.60;99.90;;;;;;2616938;54;20168;-40
2021/09/29 17:08:57;;;;;;;0.88;0.88;;;12.50;99.90;;;;;;2616802;47;20148;-41
2021/09/29 17:11:26;;;;;;;1.00;1.00;;;12.40;99.90;;;;;;2622804;39;20645;-74
2021/09/29 17:13:56;;;;;;;0.90;0.90;;;12.30;99.90;;;;;;2621380;54;20149;-76